• Join FlightAware (Why Join?)
  • Login
  • US Flag 
03:00AM EDT


 

Airport Tracker/Info


-or-


 

Live Flight TrackerFlight Track Log ✈ N600XT ✈ 20-Jul-2013 ✈ KMSP - KMGY

Flight Track Log - Related Links

Times and Time Zones

All times are in EDT time to prevent confusion due to time zone crossing. See the N600XT flight status page for this flight to view local times or setup timezone preferences in your user account.

Time Position Orientation Groundspeed Altitude Reporting Facility
EDT Latitude Longitude Course Direction KTS MPH feet Rate Location/Type
09:52PM 44.8833 -93.3000 125° Southeast 191 220 3,600  Level Minneapolis TRACON
09:53PM 44.8500 -93.3167 200° South 192 221 5,800 2,160 Climbing Minneapolis TRACON
09:54PM 44.8167 -93.2333 119° Southeast 226 260 7,800 1,680 Climbing Minneapolis TRACON
09:55PM 44.7633 -93.1517 133° Southeast 240 276 9,900 1,680 Climbing Minneapolis Center
09:56PM 44.7175 -93.0719 129° Southeast 256 295 12,000 2,160 Climbing Minneapolis Center
09:57PM 44.5511 -92.5714 125° Southeast  Level Estimated
09:57PM 44.6633 -92.9803 130° Southeast 253 291 14,300  Level Minneapolis Center
09:58PM 44.6150 -92.9036 132° Southeast 262 302 16,000 1,500 Climbing Minneapolis Center
09:59PM 44.5681 -92.8208 129° Southeast 270 311 17,400 1,500 Climbing Minneapolis Center
10:00PM 44.5156 -92.7414 133° Southeast 276 318 19,100 1,500 Climbing Minneapolis Center
10:01PM 44.4661 -92.6553 129° Southeast 283 326 20,500 1,260 Climbing Minneapolis Center
10:02PM 44.4139 -92.5733 132° Southeast 283 326 21,800 1,140 Climbing Minneapolis Center
10:03PM 44.3625 -92.4853 129° Southeast 290 334 22,900 960 Climbing Minneapolis Center
10:04PM 44.3128 -92.3875 125° Southeast 310 357 23,800 960 Climbing Minneapolis Center
10:05PM 44.2678 -92.2825 121° Southeast 316 364 24,900 1,080 Climbing Minneapolis Center
10:06PM 44.2217 -92.1753 121° Southeast 321 369 26,000 1,020 Climbing Minneapolis Center
10:07PM 44.1747 -92.0661 121° Southeast 327 376 27,000 1,080 Climbing Minneapolis Center
10:08PM 44.1172 -91.9375 122° Southeast 328 377 28,300 1,080 Climbing Minneapolis Center
10:09PM 44.0706 -91.8278 121° Southeast 329 379 29,200 780 Climbing Minneapolis Center
10:10PM 44.0211 -91.7181 122° Southeast 334 384 29,900 660 Climbing Minneapolis Center
10:11PM 43.9719 -91.6036 121° Southeast 338 389 30,600 660 Climbing Minneapolis Center
10:12PM 43.9208 -91.4911 122° Southeast 344 396 31,300 720 Climbing Minneapolis Center
10:13PM 43.8669 -91.3822 124° Southeast 344 396 32,100 660 Climbing Minneapolis Center
10:14PM 43.8108 -91.2792 127° Southeast 340 391 32,700 420 Climbing Minneapolis Center
10:15PM 43.7544 -91.1717 126° Southeast 343 395 33,000 120 Climbing Minneapolis Center
10:16PM 43.6944 -91.0600 127° Southeast 358 412 33,000  Level Minneapolis Center
10:17PM 43.6311 -90.9447 127° Southeast 372 428 33,000  Level Minneapolis Center
10:18PM 43.5686 -90.8247 126° Southeast 383 441 33,000  Level Minneapolis Center
10:19PM 43.4919 -90.6808 126° Southeast 389 448 33,000  Level Minneapolis Center
10:20PM 43.4528 -90.6100 127° Southeast 388 447 33,000  Level Chicago Center
10:21PM 43.3892 -90.4914 126° Southeast 387 445 33,000  Level Chicago Center
10:22PM 43.3250 -90.3722 126° Southeast 389 448 33,000  Level Chicago Center
10:23PM 43.2575 -90.2519 128° Southeast 387 445 33,000  Level Chicago Center
10:24PM 43.1922 -90.1325 127° Southeast 390 449 33,000  Level Chicago Center
10:25PM 43.1161 -89.9953 127° Southeast 392 451 33,000  Level Chicago Center
10:26PM 43.0486 -89.8764 128° Southeast 393 452 33,000  Level Chicago Center
10:27PM 42.9825 -89.7575 127° Southeast 393 452 33,000  Level Chicago Center
10:28PM 42.9175 -89.6389 127° Southeast 393 452 33,000  Level Chicago Center
10:29PM 42.8506 -89.5203 128° Southeast 394 453 33,000  Level Chicago Center
10:30PM 42.7847 -89.4028 127° Southeast 393 452 33,000  Level Chicago Center
10:31PM 42.7181 -89.2869 128° Southeast 392 451 33,000  Level Chicago Center
10:32PM 42.6514 -89.1697 128° Southeast 393 452 33,000  Level Chicago Center
10:33PM 42.5853 -89.0547 128° Southeast 392 451 33,000  Level Chicago Center
10:34PM 42.5186 -88.9383 128° Southeast 391 450 33,000  Level Chicago Center
10:35PM 42.4694 -88.7853 113° Southeast 410 472 33,000  Level Chicago Center
10:36PM 42.4414 -88.6422 105° East 408 470 33,000  Level Chicago Center
10:37PM 42.3878 -88.5114 119° Southeast 400 460 33,000  Level Chicago Center
10:38PM 42.3356 -88.3831 119° Southeast 394 453 33,000  Level Chicago Center
10:39PM 42.2814 -88.2464 118° Southeast 395 455 33,000  Level Chicago Center
10:40PM 42.2286 -88.1164 119° Southeast 396 456 33,000  Level Chicago Center
10:41PM 42.1753 -87.9842 119° Southeast 400 460 33,000  Level Chicago Center
10:42PM 42.1225 -87.8528 118° Southeast 400 460 33,000  Level Chicago Center
10:44PM 42.0689 -87.7228 119° Southeast 399 459 33,000  Level Chicago Center
10:45PM 42.0153 -87.5928 119° Southeast 399 459 33,000  Level Chicago Center
10:46PM 41.9619 -87.4656 119° Southeast 394 453 33,000  Level Chicago Center
10:47PM 41.9086 -87.3367 119° Southeast 396 456 33,000  Level Chicago Center
10:48PM 41.8553 -87.2103 120° Southeast 393 452 33,000  Level Chicago Center
10:49PM 41.8017 -87.0825 119° Southeast 394 453 33,000  Level Chicago Center
10:50PM 41.7478 -86.9556 120° Southeast 393 452 33,000  Level Chicago Center
10:51PM 41.6844 -86.8044 119° Southeast 390 449 33,000  Level Chicago Center
10:52PM 41.6353 -86.6917 120° Southeast 393 452 33,000  Level Chicago Center
10:53PM 41.5806 -86.5675 120° Southeast 390 449 33,000 -540 Level Chicago Center
10:54PM 41.5183 -86.4442 124° Southeast 396 456 32,000 -1,020 Descending Chicago Center
10:55PM 41.4519 -86.3133 124° Southeast 417 480 31,000 -1,020 Descending Chicago Center
10:56PM 41.3861 -86.1783 123° Southeast 432 497 30,000 -1,140 Descending Chicago Center
10:57PM 41.3061 -86.0178 124° Southeast 437 503 28,800 -1,140 Descending Chicago Center
10:58PM 41.2392 -85.8856 124° Southeast 436 502 27,800 -1,020 Descending Chicago Center
10:59PM 41.1747 -85.7550 123° Southeast 428 493 26,800 -780 Descending Chicago Center
11:00PM 41.1092 -85.6278 124° Southeast 424 488 26,300 -600 Descending Chicago Center
11:01PM 41.0464 -85.5061 124° Southeast 408 470 25,700 -540 Descending Chicago Center
11:02PM 40.9575 -85.4269 146° Southeast 390 449 25,300 -540 Descending Chicago Center
11:03PM 40.8697 -85.3467 145° Southeast 385 443 24,700 -600 Descending Chicago Center
11:04PM 40.7819 -85.2653 145° Southeast 389 448 24,200 -600 Descending Chicago Center
11:05PM 40.6942 -85.1886 146° Southeast 381 438 23,600 -900 Descending Chicago Center
11:06PM 40.6183 -85.1214 146° Southeast 375 432 22,700 -1,140 Descending Indianapolis Center
11:07PM 40.5231 -85.0364 146° Southeast 370 426 21,400 -1,260 Descending Indianapolis Center
11:08PM 40.4369 -84.9619 147° Southeast 370 426 19,900 -1,680 Descending Indianapolis Center
11:09PM 40.3422 -84.8778 146° Southeast 348 400 17,900 -1,800 Descending Indianapolis Center
11:10PM 40.2714 -84.8178 147° Southeast 336 387 16,300 -1,800 Descending Indianapolis Center
11:11PM 40.1975 -84.7506 145° Southeast 324 373 14,400 -1,860 Descending Indianapolis Center
11:12PM 40.1233 -84.6872 147° Southeast 318 366 12,600 -1,800 Descending Indianapolis Center
11:13PM 40.0497 -84.6253 147° Southeast 315 362 10,800 -1,740 Descending Indianapolis Center
11:14PM 39.9800 -84.5622 145° Southeast 308 354 9,200 -1,080 Descending Indianapolis Center
11:15PM 39.9197 -84.5108 147° Southeast 304 350 8,700 -540 Descending Indianapolis Center
11:17PM 39.8025 -84.4061 150° Southeast  Level FlightAware Approximate
11:24PM 39.5890 -84.2249 142° Southeast  Level Estimated
11:25PM 39.5890 -84.2249 142° Southeast  Level Estimated